Aérodrome :
LOGIN :

S'inscrire | Disclaimer

   EN    FR    IT 

 










Légende :    VFR   VFR Marginal   IFR   IFR Intensif   IFR Très Intensif
Visi : 
Plafond : 
>= 8 km
>= 3000ft
5 à 8 km
1000 à 3000 ft
1500m à 5 km
500 à 1000 ft
800 à 1500m
200 à 500 ft
< 800m
< 200 ft
Symboles :   Orages  Brouillard  Fortes neiges  Fortes précipitations  Vent > 20 kt
SIGMETs :   Divers  Orages  Givrage  Turbulence  Onde Orograph.  Cendres Volcan.






- Altitude de l'aérodrome : 157 ft
- Code IATA : SXF


EDDB - Berlin Schönefeld

DERNIER METAR :
  • 071550Z AUTO VRB03KT CAVOK 24/05 Q1022

METARs EXPIRÉS :
  • 071520Z AUTO 35007KT 270V040 CAVOK 25/05 Q1023 NOSIG
  • 071450Z AUTO 25005KT 190V330 CAVOK 25/05 Q1023 NOSIG
  • 071420Z AUTO 06004KT 340V150 CAVOK 24/04 Q1023 NOSIG
  • 071350Z AUTO VRB02KT CAVOK 25/05 Q1023 NOSIG
  • 071320Z AUTO VRB05KT CAVOK 24/05 Q1024 NOSIG

TAF TAF EDDB
Valide du 07 à 12h jusqu'au 08 à 12h UTC


071100Z 0712/0812 04004KT CAVOK



MET'MAP, la Météo Aéronautique d'un coup d'oeil ! - Copyright ORBIFLY Décembre 2007 - Disclaimer

ORBIFLY MET'MAP TEAM :

Programmation & Développement : Alexandra Zaïnal
Sur une idée originale de : Baudouin d'Aumeries
Soutien technique & logistique : Manuel Goepfert
Assistance : Marc-Olivier Méhu




SOURCES & CREDITS :

   NOAA